Time;durP1;ratioP1;P1;durP2;ratioP2;P2;SDS_P1;SDS_P2;PMS_P1;PMS_P2;Temp;Humidity;BMP_temperature;BMP_pressure;BME280_temperature;BME280_humidity;BME280_pressure;Samples;Min_cycle;Max_cycle;Signal;HPM_P1;HPM_P2
2023/07/29 00:00:42;;;;;;;0.00;0.00;;;;;;;19.82;100.00;99725.22;5027755;28;20184;-86
2023/07/29 00:03:08;;;;;;;0.00;0.00;;;;;;;19.91;100.00;99725.63;5029757;28;20204;-85
2023/07/29 00:05:33;;;;;;;0.00;0.00;;;;;;;19.89;100.00;99714.13;5012963;28;20191;-86
2023/07/29 00:07:58;;;;;;;0.00;0.00;;;;;;;19.89;100.00;99726.03;5021854;28;20203;-87
2023/07/29 00:10:24;;;;;;;0.00;0.00;;;;;;;20.03;100.00;99728.03;5028551;28;20243;-85
2023/07/29 00:12:49;;;;;;;0.00;0.00;;;;;;;19.90;100.00;99718.50;5010447;28;20690;-86
2023/07/29 00:15:14;;;;;;;0.00;0.00;;;;;;;19.75;100.00;99717.66;5019314;28;20223;-86
2023/07/29 00:17:39;;;;;;;0.00;0.00;;;;;;;19.92;100.00;99724.44;5018792;28;20181;-86
2023/07/29 00:20:06;;;;;;;0.00;0.00;;;;;;;20.04;100.00;99728.81;5019702;28;20184;-87
2023/07/29 00:22:31;;;;;;;0.00;0.00;;;;;;;20.11;99.45;99740.75;5013715;28;20274;-87
2023/07/29 00:24:59;;;;;;;0.00;0.00;;;;;;;20.02;99.23;99725.66;5032379;28;20689;-86
2023/07/29 00:27:25;;;;;;;0.00;0.00;;;;;;;19.81;99.07;99726.38;5007021;28;20200;-85
2023/07/29 00:29:51;;;;;;;0.00;0.00;;;;;;;19.63;99.99;99719.97;5032457;28;20233;-85
2023/07/29 00:32:16;;;;;;;0.00;0.00;;;;;;;19.57;100.00;99716.81;5031986;28;20643;-86
2023/07/29 00:34:41;;;;;;;0.00;0.00;;;;;;;19.54;100.00;99723.09;5014003;28;20200;-86
2023/07/29 00:37:07;;;;;;;0.00;0.00;;;;;;;19.41;100.00;99722.66;5040347;28;20190;-85
2023/07/29 00:39:32;;;;;;;0.00;0.00;;;;;;;19.40;100.00;99731.34;5031761;28;20183;-86
2023/07/29 00:41:58;;;;;;;0.00;0.00;;;;;;;19.19;100.00;99723.69;5021997;28;20222;-87
2023/07/29 00:44:23;;;;;;;0.00;0.00;;;;;;;19.07;100.00;99724.03;5024000;28;20214;-86
2023/07/29 00:46:51;;;;;;;0.00;0.00;;;;;;;19.04;100.00;99722.81;5007681;28;20291;-86
2023/07/29 00:49:17;;;;;;;0.00;0.00;;;;;;;19.07;100.00;99721.25;5005124;28;20620;-86
2023/07/29 00:51:43;;;;;;;0.00;0.00;;;;;;;19.00;100.00;99724.78;5015924;28;20560;-84
2023/07/29 00:54:08;;;;;;;0.23;0.23;;;;;;;18.87;100.00;99713.22;5020686;28;20212;-86
2023/07/29 00:56:34;;;;;;;0.00;0.00;;;;;;;18.75;100.00;99721.84;5031969;28;20175;-86
2023/07/29 00:59:01;;;;;;;0.00;0.00;;;;;;;18.69;100.00;99718.63;5007223;28;20185;-85
2023/07/29 01:01:28;;;;;;;0.00;0.00;;;;;;;18.68;100.00;99713.50;5006894;28;20534;-86
2023/07/29 01:03:53;;;;;;;0.00;0.00;;;;;;;18.59;100.00;99713.78;5002259;28;20197;-85
2023/07/29 01:06:50;;;;;;;0.00;0.00;;;;;;;18.66;100.00;99713.06;5029767;28;20243;-86
2023/07/29 01:09:39;;;;;;;0.00;0.00;;;;;;;18.76;100.00;99714.31;4993632;28;20195;-86
2023/07/29 01:12:27;;;;;;;0.00;0.00;;;;;;;18.90;100.00;99722.72;5001325;28;20196;-85
2023/07/29 01:15:11;;;;;;;0.00;0.00;;;;;;;18.98;100.00;99716.88;5017327;28;20199;-86
2023/07/29 01:17:46;;;;;;;0.00;0.00;;;;;;;18.97;100.00;99718.03;4998253;28;20233;-82
2023/07/29 01:20:14;;;;;;;0.00;0.00;;;;;;;18.97;100.00;99712.50;5034020;28;20671;-85
2023/07/29 01:22:40;;;;;;;0.00;0.00;;;;;;;19.00;100.00;99722.00;5008598;28;20194;-86
2023/07/29 01:25:05;;;;;;;0.47;0.47;;;;;;;18.96;100.00;99713.69;5009261;28;20180;-84
2023/07/29 01:27:31;;;;;;;0.00;0.00;;;;;;;18.91;100.00;99708.50;5007460;28;20211;-83
2023/07/29 01:29:57;;;;;;;0.00;0.00;;;;;;;18.76;100.00;99706.03;5029785;28;20263;-85
2023/07/29 01:32:32;;;;;;;0.00;0.00;;;;;;;18.71;100.00;99705.22;5031137;28;20647;-85
2023/07/29 01:35:08;;;;;;;0.00;0.00;;;;;;;18.69;100.00;99701.25;5023048;28;20206;-85
2023/07/29 01:37:37;;;;;;;0.00;0.00;;;;;;;18.56;100.00;99694.38;5027817;28;20176;-86
2023/07/29 01:40:03;;;;;;;0.50;0.50;;;;;;;18.62;100.00;99687.31;5016002;28;20186;-85
2023/07/29 01:42:30;;;;;;;0.07;0.07;;;;;;;18.57;100.00;99704.28;5026749;28;20210;-84
2023/07/29 01:44:55;;;;;;;0.00;0.00;;;;;;;18.43;100.00;99705.75;5009442;28;20205;-85
2023/07/29 01:47:22;;;;;;;0.20;0.20;;;;;;;18.54;100.00;99708.59;5008198;28;20212;-86
2023/07/29 01:49:47;;;;;;;0.00;0.00;;;;;;;18.54;100.00;99705.84;5034579;28;20271;-85
2023/07/29 01:52:12;;;;;;;0.00;0.00;;;;;;;18.47;100.00;99693.91;5008429;28;20219;-86
2023/07/29 01:54:38;;;;;;;0.00;0.00;;;;;;;18.37;100.00;99689.88;5008681;28;20747;-86
2023/07/29 01:57:03;;;;;;;0.00;0.00;;;;;;;18.46;100.00;99697.84;5008639;28;20675;-85
2023/07/29 01:59:28;;;;;;;0.00;0.00;;;;;;;18.50;100.00;99695.91;5008777;28;20187;-85
2023/07/29 02:01:54;;;;;;;0.00;0.00;;;;;;;18.42;100.00;99693.09;5000957;28;20573;-86
2023/07/29 02:04:19;;;;;;;0.00;0.00;;;;;;;18.53;100.00;99701.50;5004866;28;20278;-85
2023/07/29 02:06:44;;;;;;;0.00;0.00;;;;;;;18.64;100.00;99696.03;5020448;28;20183;-86
2023/07/29 02:09:09;;;;;;;0.00;0.00;;;;;;;18.54;100.00;99693.97;5025909;28;20233;-86
2023/07/29 02:11:35;;;;;;;0.00;0.00;;;;;;;18.54;100.00;99688.44;5011287;28;20257;-86
2023/07/29 02:14:00;;;;;;;0.00;0.00;;;;;;;18.48;100.00;99682.47;5022296;28;20729;-85
2023/07/29 02:16:25;;;;;;;0.00;0.00;;;;;;;18.56;100.00;99680.56;5004619;28;20184;-86
2023/07/29 02:18:50;;;;;;;0.00;0.00;;;;;;;18.53;100.00;99678.56;5011653;28;20214;-85
2023/07/29 02:21:16;;;;;;;0.00;0.00;;;;;;;18.69;100.00;99685.44;5023051;28;20195;-86
2023/07/29 02:23:41;;;;;;;0.00;0.00;;;;;;;18.75;100.00;99682.28;5010512;28;20207;-86
2023/07/29 02:26:07;;;;;;;0.00;0.00;;;;;;;18.64;100.00;99671.94;5016243;28;20183;-84
2023/07/29 02:28:32;;;;;;;0.00;0.00;;;;;;;18.68;100.00;99683.84;5008820;28;20208;-85
2023/07/29 02:31:21;;;;;;;0.00;0.00;;;;;;;18.71;100.00;99680.31;5025574;28;20270;-85
2023/07/29 02:33:46;;;;;;;0.13;0.13;;;;;;;18.69;100.00;99676.34;5016982;28;20262;-86
2023/07/29 02:36:13;;;;;;;0.10;0.10;;;;;;;18.73;100.00;99674.38;5005867;28;20189;-85
2023/07/29 02:38:38;;;;;;;0.00;0.00;;;;;;;18.79;100.00;99667.28;5007485;28;20188;-86
2023/07/29 02:41:04;;;;;;;0.27;0.27;;;;;;;18.81;100.00;99676.03;5032216;28;20182;-86
2023/07/29 02:43:29;;;;;;;0.00;0.00;;;;;;;18.83;100.00;99679.19;5008548;28;20203;-85
2023/07/29 02:45:55;;;;;;;0.00;0.00;;;;;;;18.89;100.00;99682.38;4999961;28;20183;-86
2023/07/29 02:48:20;;;;;;;0.10;0.10;;;;;;;18.86;100.00;99685.94;5014598;28;20204;-86
2023/07/29 02:50:45;;;;;;;0.00;0.00;;;;;;;18.91;100.00;99682.78;5007046;28;20176;-85
2023/07/29 02:53:10;;;;;;;0.30;0.30;;;;;;;18.96;100.00;99682.44;5004925;28;20204;-84
2023/07/29 02:55:39;;;;;;;0.20;0.20;;;;;;;18.89;100.00;99685.94;5008588;28;20176;-84
2023/07/29 02:58:04;;;;;;;0.00;0.00;;;;;;;18.89;100.00;99683.19;5024557;28;20188;-86
2023/07/29 03:00:31;;;;;;;1.80;1.70;;;;;;;19.06;100.00;99683.66;5006735;28;20194;-84
2023/07/29 03:02:56;;;;;;;0.20;0.20;;;;;;;19.03;100.00;99682.47;5032394;28;20199;-85
2023/07/29 03:05:22;;;;;;;0.20;0.10;;;;;;;18.99;100.00;99681.66;4998747;28;20692;-85
2023/07/29 03:07:47;;;;;;;0.70;0.57;;;;;;;19.09;100.00;99680.91;5006661;28;20208;-86
2023/07/29 03:10:13;;;;;;;0.23;0.20;;;;;;;19.20;100.00;99683.75;4998559;28;20541;-85
2023/07/29 03:12:38;;;;;;;0.80;0.80;;;;;;;19.22;100.00;99682.16;5006525;28;20188;-85
2023/07/29 03:15:04;;;;;;;0.00;0.00;;;;;;;19.24;100.00;99682.59;5006620;28;20207;-85
2023/07/29 03:17:29;;;;;;;0.20;0.20;;;;;;;19.27;100.00;99675.50;5007218;28;20183;-85
2023/07/29 03:19:55;;;;;;;0.70;0.37;;;;;;;19.21;100.00;99666.75;5006928;28;20187;-84
2023/07/29 03:22:20;;;;;;;0.57;0.57;;;;;;;19.24;100.00;99670.69;5020973;28;20185;-85
2023/07/29 03:24:45;;;;;;;0.10;0.10;;;;;;;19.27;100.00;99661.63;5021212;28;20609;-85
2023/07/29 03:27:10;;;;;;;0.20;0.20;;;;;;;19.33;100.00;99657.28;5020824;28;20202;-86
2023/07/29 03:29:36;;;;;;;0.07;0.07;;;;;;;19.31;100.00;99654.91;5000022;28;20267;-85
2023/07/29 03:32:01;;;;;;;0.10;0.10;;;;;;;19.40;100.00;99651.00;5006284;28;20286;-85
2023/07/29 03:34:26;;;;;;;0.20;0.20;;;;;;;19.35;100.00;99654.13;5024635;28;20191;-86
2023/07/29 03:36:51;;;;;;;0.30;0.23;;;;;;;19.27;100.00;99651.34;5024315;28;20182;-84
2023/07/29 03:39:17;;;;;;;0.00;0.00;;;;;;;19.31;100.00;99670.75;5024496;28;20207;-86
2023/07/29 03:41:42;;;;;;;0.00;0.00;;;;;;;19.30;100.00;99663.63;5018679;28;20616;-86
2023/07/29 03:44:07;;;;;;;0.10;0.10;;;;;;;19.34;100.00;99669.97;5010646;28;20208;-84
2023/07/29 03:46:33;;;;;;;0.00;0.00;;;;;;;19.40;100.00;99681.47;5036808;28;20175;-86
2023/07/29 03:48:58;;;;;;;0.00;0.00;;;;;;;19.41;100.00;99670.00;5002316;28;20231;-85
2023/07/29 03:51:24;;;;;;;0.10;0.10;;;;;;;19.45;100.00;99661.69;5024357;28;20234;-84
2023/07/29 03:53:50;;;;;;;0.00;0.00;;;;;;;19.44;100.00;99655.38;5006515;28;20236;-85
2023/07/29 03:56:15;;;;;;;0.33;0.33;;;;;;;19.44;100.00;99651.81;5034772;28;20258;-86
2023/07/29 03:58:40;;;;;;;0.00;0.00;;;;;;;19.51;100.00;99651.81;5012508;28;20713;-85
2023/07/29 04:01:06;;;;;;;0.00;0.00;;;;;;;19.53;100.00;99649.47;5006501;28;20180;-82
2023/07/29 04:03:33;;;;;;;0.00;0.00;;;;;;;19.49;100.00;99654.97;5011294;28;20199;-85
2023/07/29 04:05:58;;;;;;;0.00;0.00;;;;;;;19.47;100.00;99651.81;5018336;28;20187;-86
2023/07/29 04:08:24;;;;;;;0.00;0.00;;;;;;;19.50;100.00;99644.69;5018243;28;20200;-86
2023/07/29 04:10:49;;;;;;;0.00;0.00;;;;;;;19.47;100.00;99651.81;5027543;28;20179;-86
2023/07/29 04:13:14;;;;;;;0.00;0.00;;;;;;;19.47;100.00;99651.03;5009655;28;20581;-86
2023/07/29 04:15:39;;;;;;;0.00;0.00;;;;;;;19.52;100.00;99653.41;5009899;28;20184;-85
2023/07/29 04:18:05;;;;;;;0.00;0.00;;;;;;;19.50;100.00;99650.22;5016944;28;20233;-85
2023/07/29 04:20:30;;;;;;;0.00;0.00;;;;;;;19.55;100.00;99647.13;5006288;28;20188;-85
2023/07/29 04:22:55;;;;;;;0.00;0.00;;;;;;;19.55;100.00;99647.13;5013532;28;20680;-86
2023/07/29 04:25:20;;;;;;;0.10;0.10;;;;;;;19.54;100.00;99649.09;5017462;28;20188;-87
2023/07/29 04:27:46;;;;;;;0.00;0.00;;;;;;;19.57;100.00;99650.28;5003368;28;20606;-87
2023/07/29 04:30:11;;;;;;;0.00;0.00;;;;;;;19.51;100.00;99638.75;5008313;28;20184;-84
2023/07/29 04:32:36;;;;;;;0.00;0.00;;;;;;;19.45;100.00;99648.63;5004173;28;20713;-84
2023/07/29 04:35:02;;;;;;;0.00;0.00;;;;;;;19.37;100.00;99644.25;5014711;28;20715;-84
2023/07/29 04:37:27;;;;;;;0.00;0.00;;;;;;;19.36;100.00;99647.41;5009928;28;20207;-84
2023/07/29 04:39:52;;;;;;;0.00;0.00;;;;;;;19.06;100.00;99636.59;5027282;28;20184;-86
2023/07/29 04:42:18;;;;;;;0.00;0.00;;;;;;;19.27;100.00;99639.47;5006739;28;20214;-83
2023/07/29 04:44:43;;;;;;;0.00;0.00;;;;;;;19.37;100.00;99641.47;5014036;28;20740;-85
2023/07/29 04:47:08;;;;;;;0.00;0.00;;;;;;;19.45;100.00;99645.88;5024925;28;20254;-85
2023/07/29 04:49:34;;;;;;;0.00;0.00;;;;;;;19.46;100.00;99641.13;5017736;28;20180;-86
2023/07/29 04:51:59;;;;;;;0.13;0.13;;;;;;;19.31;100.00;99643.06;4999629;28;20236;-85
2023/07/29 04:54:24;;;;;;;0.10;0.10;;;;;;;19.20;100.00;99639.44;5009292;28;20223;-84
2023/07/29 04:56:49;;;;;;;0.00;0.00;;;;;;;19.12;100.00;99638.63;5017712;28;20176;-85
2023/07/29 04:59:15;;;;;;;0.00;0.00;;;;;;;19.21;100.00;99643.78;5006944;28;20188;-85
2023/07/29 05:01:42;;;;;;;0.00;0.00;;;;;;;19.17;100.00;99632.69;5020415;28;20688;-85
2023/07/29 05:04:07;;;;;;;0.10;0.10;;;;;;;19.27;100.00;99642.25;5000720;28;20291;-86
2023/07/29 05:06:33;;;;;;;0.10;0.10;;;;;;;19.23;100.00;99633.91;5009249;28;20761;-85
2023/07/29 05:08:58;;;;;;;0.00;0.00;;;;;;;19.31;100.00;99632.75;5009209;28;20211;-86
2023/07/29 05:11:25;;;;;;;0.00;0.00;;;;;;;19.29;100.00;99629.59;5023163;28;20259;-86
2023/07/29 05:13:50;;;;;;;0.00;0.00;;;;;;;19.31;100.00;99634.75;5012272;28;20262;-85
2023/07/29 05:16:16;;;;;;;1.70;0.93;;;;;;;19.34;100.00;99636.72;5008969;28;20647;-86
2023/07/29 05:18:41;;;;;;;0.00;0.00;;;;;;;19.33;100.00;99635.13;5008596;28;20186;-85
2023/07/29 05:21:08;;;;;;;0.00;0.00;;;;;;;19.44;100.00;99644.28;5016651;28;20187;-86
2023/07/29 05:23:33;;;;;;;0.00;0.00;;;;;;;19.56;100.00;99640.41;5022018;28;20202;-85
2023/07/29 05:25:58;;;;;;;0.20;0.20;;;;;;;19.46;100.00;99624.50;5023426;28;20258;-86
2023/07/29 05:28:24;;;;;;;0.00;0.00;;;;;;;19.40;100.00;99628.84;5000906;28;20242;-85
2023/07/29 05:30:49;;;;;;;0.20;0.20;;;;;;;19.52;100.00;99634.78;5008898;28;20190;-85
2023/07/29 05:33:14;;;;;;;0.00;0.00;;;;;;;19.48;100.00;99630.44;5008579;28;20247;-85
2023/07/29 05:35:40;;;;;;;0.47;0.47;;;;;;;19.51;100.00;99626.88;5020591;28;20187;-86
2023/07/29 05:38:08;;;;;;;0.00;0.00;;;;;;;19.55;100.00;99642.38;5014320;28;20666;-86
2023/07/29 05:40:33;;;;;;;0.00;0.00;;;;;;;19.57;100.00;99636.44;5026412;28;20172;-85
2023/07/29 05:42:58;;;;;;;0.10;0.10;;;;;;;19.58;100.00;99646.34;5008649;28;20207;-84
2023/07/29 05:45:23;;;;;;;0.00;0.00;;;;;;;19.74;100.00;99655.09;5013615;28;20184;-85
2023/07/29 05:47:49;;;;;;;0.30;0.30;;;;;;;19.60;100.00;99652.28;5012171;28;20674;-85
2023/07/29 05:50:14;;;;;;;0.00;0.00;;;;;;;19.48;100.00;99642.31;5026683;28;20267;-85
2023/07/29 05:52:40;;;;;;;0.00;0.00;;;;;;;19.47;100.00;99637.97;5021278;28;20795;-86
2023/07/29 05:55:05;;;;;;;0.00;0.00;;;;;;;19.56;100.00;99651.50;4998165;28;20177;-85
2023/07/29 05:57:30;;;;;;;0.00;0.00;;;;;;;19.64;100.00;99646.75;5008273;28;20202;-86
2023/07/29 05:59:56;;;;;;;0.00;0.00;;;;;;;19.74;100.00;99640.44;5025991;28;20238;-84
2023/07/29 06:02:21;;;;;;;0.00;0.00;;;;;;;19.84;100.00;99636.91;5025417;28;20187;-87
2023/07/29 06:04:46;;;;;;;0.00;0.00;;;;;;;19.80;100.00;99628.56;5007945;28;20208;-86
2023/07/29 06:07:12;;;;;;;0.00;0.00;;;;;;;19.83;100.00;99630.56;4998154;28;20208;-87
2023/07/29 06:09:37;;;;;;;0.00;0.00;;;;;;;19.66;100.00;99624.97;5004582;28;20176;-87
2023/07/29 06:12:03;;;;;;;0.00;0.00;;;;;;;19.75;100.00;99615.09;5005741;28;20559;-86
2023/07/29 06:14:28;;;;;;;0.00;0.00;;;;;;;19.73;100.00;99617.47;5026528;28;20715;-86
2023/07/29 06:16:53;;;;;;;0.00;0.00;;;;;;;19.73;100.00;99622.22;5001274;28;20555;-88
2023/07/29 06:19:20;;;;;;;0.00;0.00;;;;;;;19.66;100.00;99624.97;5016387;28;20180;-85
2023/07/29 06:21:45;;;;;;;0.47;0.40;;;;;;;19.54;100.00;99626.94;5008747;28;20180;-86
2023/07/29 06:24:10;;;;;;;0.00;0.00;;;;;;;19.49;100.00;99618.97;4998961;28;20252;-87
2023/07/29 06:26:36;;;;;;;0.00;0.00;;;;;;;19.48;100.00;99617.38;5004446;28;20180;-86
2023/07/29 06:29:01;;;;;;;0.17;0.17;;;;;;;19.48;100.00;99633.22;5022744;28;20209;-89
2023/07/29 06:31:26;;;;;;;0.07;0.07;;;;;;;19.52;100.00;99647.84;5000941;28;20185;-87
2023/07/29 06:33:52;;;;;;;0.10;0.10;;;;;;;19.49;100.00;99643.91;5005866;28;20234;-87
2023/07/29 06:36:17;;;;;;;0.40;0.40;;;;;;;19.48;100.00;99642.31;5005803;28;20557;-87
2023/07/29 06:38:43;;;;;;;0.00;0.00;;;;;;;19.47;100.00;99649.03;5013141;28;20168;-88
2023/07/29 06:41:08;;;;;;;0.00;0.00;;;;;;;19.54;100.00;99653.81;5013767;28;20255;-86
2023/07/29 06:43:33;;;;;;;0.00;0.00;;;;;;;19.54;100.00;99648.28;5010224;28;20193;-87
2023/07/29 06:45:59;;;;;;;0.00;0.00;;;;;;;19.51;100.00;99651.81;5012943;28;20173;-89
2023/07/29 06:48:24;;;;;;;0.00;0.00;;;;;;;19.53;100.00;99650.25;5004822;28;20204;-87
2023/07/29 06:50:50;;;;;;;0.43;0.20;;;;;;;19.79;100.00;99649.16;5006731;28;20176;-87
2023/07/29 06:53:16;;;;;;;0.00;0.00;;;;;;;19.97;100.00;99653.97;4996149;28;20258;-87
2023/07/29 06:55:41;;;;;;;0.17;0.13;;;;;;;19.82;100.00;99656.69;5013039;28;20562;-87
2023/07/29 06:58:07;;;;;;;0.40;0.40;;;;;;;19.71;100.00;99655.09;4995362;28;20658;-87
2023/07/29 07:00:32;;;;;;;0.20;0.13;;;;;;;19.65;100.00;99657.44;5020726;28;20646;-87
2023/07/29 07:02:58;;;;;;;0.33;0.33;;;;;;;19.68;100.00;99650.34;5002648;28;20596;-87
2023/07/29 07:05:23;;;;;;;0.00;0.00;;;;;;;19.79;100.00;99651.13;4995116;28;20655;-87
2023/07/29 07:07:48;;;;;;;0.00;0.00;;;;;;;19.86;100.00;99648.38;4994873;28;20200;-88
2023/07/29 07:10:14;;;;;;;0.00;0.00;;;;;;;19.81;100.00;99648.75;5001565;28;20191;-87
2023/07/29 07:12:39;;;;;;;0.40;0.40;;;;;;;19.85;100.00;99653.13;5004272;28;20183;-87
2023/07/29 07:15:05;;;;;;;0.00;0.00;;;;;;;19.80;100.00;99652.72;4990472;28;20262;-86
2023/07/29 07:17:30;;;;;;;0.00;0.00;;;;;;;19.67;100.00;99652.28;5020000;28;20190;-86
2023/07/29 07:19:56;;;;;;;0.50;0.30;;;;;;;19.68;100.00;99666.97;5004406;28;20601;-88
2023/07/29 07:22:21;;;;;;;0.23;0.23;;;;;;;19.60;100.00;99655.84;5003716;28;20227;-87
2023/07/29 07:24:46;;;;;;;0.40;0.40;;;;;;;19.65;100.00;99645.56;5020908;28;20231;-86
2023/07/29 07:27:11;;;;;;;0.13;0.13;;;;;;;19.68;100.00;99645.59;5003416;28;20701;-87
2023/07/29 07:29:37;;;;;;;0.40;0.40;;;;;;;19.69;100.00;99654.69;5003186;28;20270;-86
2023/07/29 07:32:02;;;;;;;0.00;0.00;;;;;;;19.71;100.00;99652.31;5002914;28;20542;-86
2023/07/29 07:34:28;;;;;;;0.60;0.60;;;;;;;19.64;100.00;99642.00;4994886;28;20242;-87
2023/07/29 07:36:53;;;;;;;0.83;0.40;;;;;;;19.71;100.00;99652.31;5002251;28;20230;-87
2023/07/29 07:39:18;;;;;;;0.07;0.07;;;;;;;19.68;100.00;99642.81;5013448;28;20226;-87
2023/07/29 07:41:44;;;;;;;0.20;0.20;;;;;;;19.78;100.00;99653.13;4992187;28;20191;-87
2023/07/29 07:44:10;;;;;;;0.10;0.10;;;;;;;19.75;100.00;99644.78;5006982;28;20550;-87
2023/07/29 07:46:36;;;;;;;0.63;0.63;;;;;;;19.81;100.00;99645.97;5015947;28;20230;-86
2023/07/29 07:49:01;;;;;;;0.10;0.00;;;;;;;19.82;100.00;99648.38;5014251;28;20215;-86
2023/07/29 07:51:26;;;;;;;0.53;0.53;;;;;;;19.99;100.00;99655.16;5002384;28;20207;-86
2023/07/29 07:53:51;;;;;;;0.00;0.00;;;;;;;19.92;100.00;99632.94;4994967;28;20283;-86
2023/07/29 07:56:17;;;;;;;0.00;0.00;;;;;;;20.09;100.00;99639.69;5020835;28;20183;-87
2023/07/29 07:58:42;;;;;;;0.00;0.00;;;;;;;20.20;100.00;99632.97;4994911;28;20173;-87
2023/07/29 08:01:09;;;;;;;0.20;0.20;;;;;;;20.33;100.00;99638.91;5003273;28;20649;-87
2023/07/29 08:03:35;;;;;;;0.00;0.00;;;;;;;20.39;100.00;99637.31;5013566;28;20193;-87
2023/07/29 08:06:02;;;;;;;0.00;0.00;;;;;;;20.61;100.00;99637.31;5003794;28;20176;-87
2023/07/29 08:08:27;;;;;;;0.00;0.00;;;;;;;20.66;100.00;99621.06;4999582;28;20239;-87
2023/07/29 08:10:56;;;;;;;0.00;0.00;;;;;;;20.71;100.00;99612.34;5008463;28;20181;-87
2023/07/29 08:13:22;;;;;;;0.00;0.00;;;;;;;20.77;100.00;99610.72;4996182;28;20274;-87
2023/07/29 08:15:49;;;;;;;0.00;0.00;;;;;;;20.83;100.00;99608.34;4996562;28;20636;-87
2023/07/29 08:18:15;;;;;;;0.50;0.50;;;;;;;20.71;100.00;99606.78;5014529;28;20543;-87
2023/07/29 08:20:41;;;;;;;0.00;0.00;;;;;;;20.73;100.00;99612.72;5013694;28;20645;-87
2023/07/29 08:23:06;;;;;;;0.53;0.50;;;;;;;20.68;100.00;99601.22;5021446;28;20256;-87
2023/07/29 08:25:32;;;;;;;0.53;0.40;;;;;;;20.64;100.00;99606.00;4995564;28;20209;-86
2023/07/29 08:27:57;;;;;;;0.10;0.10;;;;;;;20.57;100.00;99608.78;5024045;28;20762;-86
2023/07/29 08:30:22;;;;;;;0.00;0.00;;;;;;;20.54;100.00;99601.25;5016123;28;20181;-87
2023/07/29 08:32:48;;;;;;;0.10;0.10;;;;;;;20.61;100.00;99598.47;5005894;28;20557;-87
2023/07/29 08:35:13;;;;;;;0.20;0.20;;;;;;;20.58;100.00;99613.94;4998202;28;20181;-87
2023/07/29 08:37:38;;;;;;;0.20;0.20;;;;;;;20.60;100.00;99608.00;5021046;28;20199;-88
2023/07/29 08:40:04;;;;;;;0.10;0.10;;;;;;;20.67;100.00;99619.06;5008786;28;20299;-87
2023/07/29 08:42:32;;;;;;;0.10;0.10;;;;;;;20.64;100.00;99622.66;5008092;28;20189;-87
2023/07/29 08:45:05;;;;;;;0.40;0.40;;;;;;;20.53;100.00;99628.19;4999323;28;20188;-86
2023/07/29 08:47:31;;;;;;;0.40;0.40;;;;;;;20.54;100.00;99629.78;5000116;28;20878;-86
2023/07/29 08:49:57;;;;;;;0.17;0.13;;;;;;;20.49;100.00;99628.22;5006295;28;20192;-86
2023/07/29 08:52:24;;;;;;;0.10;0.10;;;;;;;20.49;100.00;99625.44;5026126;28;20264;-87
2023/07/29 08:54:50;;;;;;;0.00;0.00;;;;;;;20.43;100.00;99617.94;5014975;28;20207;-87
2023/07/29 08:57:15;;;;;;;0.57;0.57;;;;;;;20.35;100.00;99619.09;4997752;28;20264;-87
2023/07/29 08:59:41;;;;;;;0.57;0.57;;;;;;;20.39;100.00;99631.75;4997106;28;20192;-86
2023/07/29 09:02:07;;;;;;;8.00;6.17;;;;;;;20.40;100.00;99629.81;4994692;28;20216;-86
2023/07/29 09:04:32;;;;;;;9.37;8.47;;;;;;;20.40;100.00;99632.56;5018558;28;20686;-86
2023/07/29 09:06:59;;;;;;;0.73;0.73;;;;;;;20.39;100.00;99626.22;4995009;28;20188;-86
2023/07/29 09:09:25;;;;;;;0.10;0.10;;;;;;;20.34;100.00;99623.03;5001476;28;20206;-86
2023/07/29 09:11:50;;;;;;;1.27;1.27;;;;;;;20.45;100.00;99618.31;4998348;28;20192;-87
2023/07/29 09:14:16;;;;;;;2.30;2.13;;;;;;;20.50;100.00;99620.69;5028450;28;20208;-87
2023/07/29 09:16:41;;;;;;;0.27;0.27;;;;;;;20.62;100.00;99625.03;5005365;28;20180;-87
2023/07/29 09:19:07;;;;;;;0.60;0.60;;;;;;;20.59;100.00;99614.72;5021375;28;20173;-87
2023/07/29 09:21:32;;;;;;;1.67;1.57;;;;;;;20.67;100.00;99608.75;5020930;28;20212;-87
2023/07/29 09:24:03;;;;;;;6.40;6.00;;;;;;;20.90;100.00;99607.50;4999096;28;20270;-86
2023/07/29 09:26:28;;;;;;;0.27;0.27;;;;;;;20.87;100.00;99603.56;5011614;28;20186;-87
2023/07/29 09:28:55;;;;;;;0.53;0.53;;;;;;;20.91;100.00;99609.09;5013051;28;20197;-86
2023/07/29 09:31:22;;;;;;;2.80;2.60;;;;;;;21.05;100.00;99614.59;5000391;28;20188;-86
2023/07/29 09:33:48;;;;;;;2.43;2.23;;;;;;;20.92;100.00;99596.78;4999996;28;20332;-86
2023/07/29 09:36:13;;;;;;;1.03;0.80;;;;;;;20.85;100.00;99592.06;5021363;28;20748;-86
2023/07/29 09:38:39;;;;;;;0.60;0.60;;;;;;;21.08;100.00;99602.69;5032569;28;20188;-87
2023/07/29 09:41:04;;;;;;;1.63;1.53;;;;;;;21.25;100.00;99604.63;5034694;28;20266;-88
2023/07/29 09:43:32;;;;;;;0.20;0.20;;;;;;;21.38;100.00;99605.75;5026277;28;20675;-86
2023/07/29 09:46:01;;;;;;;0.57;0.57;;;;;;;21.66;100.00;99606.78;5038919;28;20184;-88
2023/07/29 09:48:28;;;;;;;0.43;0.43;;;;;;;21.81;100.00;99591.59;5023596;28;20208;-87
2023/07/29 09:50:57;;;;;;;8.03;7.43;;;;;;;21.91;99.17;99585.16;5026444;28;20639;-86
2023/07/29 09:53:22;;;;;;;1.43;1.33;;;;;;;21.96;97.46;99584.72;5004566;28;20202;-87
2023/07/29 09:55:50;;;;;;;9.73;8.97;;;;;;;21.92;96.52;99580.38;4994387;28;20597;-86
2023/07/29 09:58:19;;;;;;;3.93;1.17;;;;;;;21.82;97.50;99586.81;5013779;28;20212;-86
2023/07/29 10:00:45;;;;;;;0.97;0.97;;;;;;;21.82;97.44;99587.59;5002114;28;20185;-86
2023/07/29 10:03:11;;;;;;;4.47;4.07;;;;;;;21.78;96.64;99580.50;4997616;28;20316;-88
2023/07/29 10:05:38;;;;;;;3.20;3.00;;;;;;;21.66;96.09;99576.19;4996040;28;20275;-86
2023/07/29 10:08:04;;;;;;;6.30;5.77;;;;;;;21.73;95.33;99570.59;5004556;28;20206;-87
2023/07/29 10:10:30;;;;;;;4.50;4.20;;;;;;;21.96;96.29;99576.38;5008136;28;20555;-86
2023/07/29 10:12:56;;;;;;;5.87;5.43;;;;;;;22.09;91.57;99571.13;5017308;28;20209;-88
2023/07/29 10:15:22;;;;;;;5.10;4.80;;;;;;;22.15;90.89;99563.94;4998768;28;20216;-87
2023/07/29 10:17:49;;;;;;;3.53;2.70;;;;;;;22.42;92.90;99583.56;5007199;28;20178;-90
2023/07/29 10:20:15;;;;;;;4.87;4.57;;;;;;;22.48;90.97;99572.75;4999326;28;20182;-87
2023/07/29 10:22:42;;;;;;;9.13;8.33;;;;;;;22.61;90.39;99581.38;5015306;28;20591;-87
2023/07/29 10:25:18;;;;;;;3.27;3.00;;;;;;;22.70;88.50;99579.66;5007105;28;20181;-86
2023/07/29 10:28:04;;;;;;;4.73;4.33;;;;;;;23.02;87.04;99576.56;5001503;28;20202;-89
2023/07/29 10:30:31;;;;;;;2.30;2.20;;;;;;;23.06;85.37;99576.50;5004159;28;20177;-84
2023/07/29 10:32:58;;;;;;;3.87;3.60;;;;;;;22.88;81.56;99562.03;5021918;28;20256;-87
2023/07/29 10:35:25;;;;;;;4.47;4.17;;;;;;;22.88;80.67;99548.88;4995933;28;20179;-88
2023/07/29 10:37:52;;;;;;;2.90;2.70;;;;;;;23.23;80.68;99567.13;5002668;28;20180;-88
2023/07/29 10:40:17;;;;;;;3.87;3.57;;;;;;;23.37;78.39;99561.34;4996342;28;20182;-87
2023/07/29 10:43:12;;;;;;;4.43;4.13;;;;;;;23.27;75.88;99553.91;4995176;28;20184;-87
2023/07/29 10:45:39;;;;;;;3.47;3.27;;;;;;;23.25;76.44;99556.34;4992931;28;20187;-87
2023/07/29 10:48:12;;;;;;;4.43;4.13;;;;;;;23.21;75.45;99549.25;5003394;28;20191;-89
2023/07/29 10:50:38;;;;;;;2.13;2.03;;;;;;;23.23;74.74;99552.41;5011364;28;20190;-87
2023/07/29 10:53:04;;;;;;;3.07;2.80;;;;;;;23.25;72.53;99533.25;5020181;28;20483;-86
2023/07/29 10:55:38;;;;;;;2.00;1.90;;;;;;;23.53;72.66;99555.16;4996969;28;20264;-88
2023/07/29 10:58:18;;;;;;;4.03;2.43;;;;;;;23.51;71.30;99535.28;5005683;28;20237;-87
2023/07/29 11:00:45;;;;;;;5.07;4.67;;;;;;;23.65;71.29;99537.09;5003425;28;20192;-87
2023/07/29 11:03:14;;;;;;;3.10;2.83;;;;;;;23.67;69.16;99527.06;5003176;28;20195;-86
2023/07/29 11:05:44;;;;;;;3.47;3.27;;;;;;;23.69;69.70;99535.81;5015510;28;20199;-88
2023/07/29 11:08:26;;;;;;;4.03;3.73;;;;;;;23.21;69.75;99519.38;5016640;28;20602;-87
2023/07/29 11:11:11;;;;;;;3.93;3.63;;;;;;;22.88;71.87;99534.16;5007957;28;20273;-87
2023/07/29 11:13:38;;;;;;;1.37;1.23;;;;;;;22.73;72.52;99520.38;5008382;28;20715;-87
2023/07/29 11:16:04;;;;;;;1.70;1.70;;;;;;;22.65;73.19;99521.66;5026427;28;20180;-87
2023/07/29 11:18:34;;;;;;;2.90;2.70;;;;;;;22.50;74.10;99523.03;4991326;28;20186;-86
2023/07/29 11:21:01;;;;;;;2.07;1.97;;;;;;;22.40;74.45;99521.13;5017810;28;20595;-89
2023/07/29 11:23:29;;;;;;;30.33;19.87;;;;;;;22.47;74.35;99529.44;5001431;28;20206;-90